Time;durP1;ratioP1;P1;durP2;ratioP2;P2;SDS_P1;SDS_P2;PMS_P1;PMS_P2;Temp;Humidity;BMP_temperature;BMP_pressure;BME280_temperature;BME280_humidity;BME280_pressure;Samples;Min_cycle;Max_cycle;Signal;HPM_P1;HPM_P2
2022/09/13 00:00:42;;;;;;;;;;;17.60;99.90;;;;;;4920397;29;19911;-72
2022/09/13 00:03:08;;;;;;;;;;;17.60;99.90;;;;;;4918723;29;19927;-73
2022/09/13 00:05:34;;;;;;;;;;;17.60;99.90;;;;;;4901983;29;19935;-73
2022/09/13 00:08:00;;;;;;;;;;;17.60;99.90;;;;;;4918781;29;19919;-72
2022/09/13 00:10:26;;;;;;;;;;;17.60;99.90;;;;;;4919700;29;20018;-73
2022/09/13 00:12:52;;;;;;;;;;;17.60;99.90;;;;;;4920697;29;19929;-74
2022/09/13 00:15:17;;;;;;;;;;;17.70;99.90;;;;;;4919007;29;20421;-73
2022/09/13 00:17:43;;;;;;;;;;;17.70;99.90;;;;;;4919084;29;20312;-72
2022/09/13 00:20:08;;;;;;;;;;;17.70;99.90;;;;;;4917507;29;19918;-72
2022/09/13 00:22:34;;;;;;;;;;;17.70;99.90;;;;;;4920001;29;19950;-73
2022/09/13 00:25:01;;;;;;;;;;;17.70;99.90;;;;;;4920986;29;20364;-73
2022/09/13 00:27:26;;;;;;;;;;;17.70;99.90;;;;;;4921569;29;19946;-72
2022/09/13 00:29:52;;;;;;;;;;;17.70;99.90;;;;;;4911779;29;20275;-72
2022/09/13 00:32:17;;;;;;;;;;;17.70;99.90;;;;;;4910034;29;20398;-73
2022/09/13 00:34:43;;;;;;;;;;;17.60;99.90;;;;;;4920415;29;20442;-72
2022/09/13 00:37:08;;;;;;;;;;;17.60;99.90;;;;;;4919917;29;19919;-73
2022/09/13 00:39:34;;;;;;;;;;;17.60;99.90;;;;;;4918142;29;20216;-72
2022/09/13 00:42:00;;;;;;;;;;;17.60;99.90;;;;;;4903711;29;19919;-72
2022/09/13 00:44:44;;;;;;;;;;;17.60;99.90;;;;;;4918800;29;19926;-72
2022/09/13 00:47:11;;;;;;;;;;;17.50;99.90;;;;;;4920068;29;20364;-72
2022/09/13 00:49:38;;;;;;;;;;;17.50;99.90;;;;;;4917888;29;19970;-72
2022/09/13 00:52:06;;;;;;;;;;;17.50;99.90;;;;;;4903907;29;19989;-72
2022/09/13 00:54:39;;;;;;;;;;;17.40;99.90;;;;;;4902043;29;19934;-73
2022/09/13 00:57:06;;;;;;;;;;;17.40;99.90;;;;;;4923782;29;19923;-72
2022/09/13 00:59:35;;;;;;;;;;;17.40;99.90;;;;;;4923033;29;20396;-72
2022/09/13 01:02:02;;;;;;;;;;;17.40;99.90;;;;;;4921167;29;20235;-72
2022/09/13 01:04:29;;;;;;;;;;;17.40;99.90;;;;;;4918424;29;19922;-72
2022/09/13 01:06:57;;;;;;;;;;;17.40;99.90;;;;;;4921361;29;20403;-72
2022/09/13 01:09:23;;;;;;;;;;;17.40;99.90;;;;;;4921034;29;20101;-73
2022/09/13 01:11:54;;;;;;;;;;;17.40;99.90;;;;;;4921595;29;19930;-73
2022/09/13 01:14:21;;;;;;;;;;;17.40;99.90;;;;;;4921154;29;20111;-73
2022/09/13 01:16:47;;;;;;;;;;;17.40;99.90;;;;;;4904285;29;19964;-72
2022/09/13 01:19:12;;;;;;;;;;;17.40;99.90;;;;;;4905376;29;19957;-72
2022/09/13 01:21:56;;;;;;;;;;;17.40;99.90;;;;;;4920407;29;19915;-72
2022/09/13 01:25:00;;;;;;;;;;;17.40;99.90;;;;;;4920548;29;19919;-73
2022/09/13 01:27:38;;;;;;;;;;;17.40;99.90;;;;;;4824224;29;19920;-72
2022/09/13 01:30:06;;;;;;;;;;;17.40;99.90;;;;;;4824046;29;19968;-72
2022/09/13 01:32:51;;;;;;;;;;;17.30;99.90;;;;;;4868810;29;19927;-73
2022/09/13 01:35:22;;;;;;;;;;;17.30;99.90;;;;;;4908927;29;20409;-72
2022/09/13 01:38:02;;;;;;;;;;;17.30;99.90;;;;;;4918793;29;20264;-73
2022/09/13 01:40:28;;;;;;;;;;;17.20;99.90;;;;;;4921874;29;19919;-72
2022/09/13 01:43:01;;;;;;;;;;;17.20;99.90;;;;;;4923088;29;20391;-72
2022/09/13 01:45:40;;;;;;;;;;;17.20;99.90;;;;;;4921672;29;20010;-72
2022/09/13 01:48:16;;;;;;;;;;;17.20;99.90;;;;;;4904894;29;20722;-72
2022/09/13 01:50:43;;;;;;;;;;;17.20;99.90;;;;;;4923124;29;19915;-72
2022/09/13 01:53:29;;;;;;;;;;;17.20;99.90;;;;;;4922839;29;19931;-72
2022/09/13 01:56:30;;;;;;;;;;;17.20;99.90;;;;;;4906182;29;19922;-72
2022/09/13 01:58:57;;;;;;;;;;;17.10;99.90;;;;;;4825893;29;19917;-73
2022/09/13 02:01:28;;;;;;;;;;;17.10;99.90;;;;;;4901985;29;20682;-72
2022/09/13 02:03:56;;;;;;;;;;;17.10;99.90;;;;;;4920952;29;19926;-73
2022/09/13 02:06:33;;;;;;;;;;;17.10;99.90;;;;;;4883998;29;19981;-72
2022/09/13 02:09:00;;;;;;;;;;;17.10;99.90;;;;;;4901661;29;20402;-72
2022/09/13 02:11:26;;;;;;;;;;;17.10;99.90;;;;;;4919938;29;20488;-73
2022/09/13 02:13:56;;;;;;;;;;;17.10;99.90;;;;;;4903023;29;19934;-73
2022/09/13 02:16:30;;;;;;;;;;;17.10;99.90;;;;;;4919555;29;19970;-72
2022/09/13 02:18:58;;;;;;;;;;;17.10;99.90;;;;;;4920692;29;19918;-72
2022/09/13 02:21:31;;;;;;;;;;;17.10;99.90;;;;;;4920835;29;20108;-73
2022/09/13 02:24:00;;;;;;;;;;;17.10;99.90;;;;;;4900077;29;19951;-72
2022/09/13 02:26:26;;;;;;;;;;;17.10;99.90;;;;;;4903852;29;19968;-72
2022/09/13 02:28:53;;;;;;;;;;;17.10;99.90;;;;;;4899170;29;20375;-73
2022/09/13 02:31:22;;;;;;;;;;;17.10;99.90;;;;;;4916664;29;19972;-73
2022/09/13 02:33:52;;;;;;;;;;;17.10;99.90;;;;;;4917339;29;19923;-73
2022/09/13 02:36:21;;;;;;;;;;;17.10;99.90;;;;;;4916632;29;19919;-72
2022/09/13 02:38:54;;;;;;;;;;;17.10;99.90;;;;;;4901515;29;20307;-72
2022/09/13 02:41:34;;;;;;;;;;;17.10;99.90;;;;;;4903217;29;19974;-73
2022/09/13 02:44:12;;;;;;;;;;;17.10;99.90;;;;;;4902982;29;19925;-72
2022/09/13 02:46:37;;;;;;;;;;;17.10;99.90;;;;;;4919649;29;20525;-72
2022/09/13 02:49:12;;;;;;;;;;;17.00;99.90;;;;;;4913547;29;20014;-73
2022/09/13 02:51:54;;;;;;;;;;;17.00;99.90;;;;;;4920695;29;20443;-73
2022/09/13 02:54:31;;;;;;;;;;;17.00;99.90;;;;;;4918851;29;19926;-72
2022/09/13 02:57:05;;;;;;;;;;;17.00;99.90;;;;;;4903803;29;20037;-72
2022/09/13 02:59:30;;;;;;;;;;;17.00;99.90;;;;;;4918539;29;19985;-72
2022/09/13 03:02:19;;;;;;;;;;;17.00;99.90;;;;;;4917202;29;20454;-71
2022/09/13 03:04:45;;;;;;;;;;;17.00;99.90;;;;;;4906118;29;20022;-72
2022/09/13 03:07:11;;;;;;;;;;;16.90;99.90;;;;;;4904213;29;20453;-72
2022/09/13 03:09:41;;;;;;;;;;;16.90;99.90;;;;;;4901331;29;19919;-72
2022/09/13 03:12:33;;;;;;;;;;;16.90;99.90;;;;;;4920958;29;20418;-72
2022/09/13 03:15:11;;;;;;;;;;;16.80;99.90;;;;;;4899207;29;19965;-72
2022/09/13 03:17:36;;;;;;;;;;;16.80;99.90;;;;;;4902997;29;19919;-72
2022/09/13 03:20:17;;;;;;;;;;;16.80;99.90;;;;;;4900910;29;19919;-72
2022/09/13 03:22:42;;;;;;;;;;;16.80;99.90;;;;;;4920114;29;20035;-72
2022/09/13 03:25:08;;;;;;;;;;;16.80;99.90;;;;;;4919170;29;20063;-72
2022/09/13 03:27:36;;;;;;;;;;;16.90;99.90;;;;;;4921842;29;20268;-71
2022/09/13 03:30:06;;;;;;;;;;;16.90;99.90;;;;;;4903046;29;20347;-72
2022/09/13 03:32:51;;;;;;;;;;;16.90;99.90;;;;;;4919986;29;19923;-72
2022/09/13 03:35:16;;;;;;;;;;;16.90;99.90;;;;;;4918428;29;19923;-72
2022/09/13 03:37:44;;;;;;;;;;;16.90;99.90;;;;;;4902510;29;19935;-71
2022/09/13 03:40:12;;;;;;;;;;;16.90;99.90;;;;;;4920417;29;19914;-72
2022/09/13 03:42:38;;;;;;;;;;;16.90;99.90;;;;;;4920319;29;20397;-72
2022/09/13 03:45:05;;;;;;;;;;;17.00;99.90;;;;;;4922374;29;19919;-72
2022/09/13 03:47:33;;;;;;;;;;;17.00;99.90;;;;;;4922174;29;19919;-73
2022/09/13 03:49:59;;;;;;;;;;;17.00;99.90;;;;;;4922451;29;19926;-72
2022/09/13 03:52:25;;;;;;;;;;;17.10;99.90;;;;;;4920799;29;20392;-72
2022/09/13 03:54:51;;;;;;;;;;;17.10;99.90;;;;;;4920310;29;19922;-72
2022/09/13 03:57:20;;;;;;;;;;;17.10;99.90;;;;;;4920218;29;19923;-72
2022/09/13 03:59:50;;;;;;;;;;;17.10;99.90;;;;;;4903905;29;20315;-71
2022/09/13 04:02:16;;;;;;;;;;;17.10;99.90;;;;;;4916588;29;19919;-72
2022/09/13 04:04:43;;;;;;;;;;;17.20;99.90;;;;;;4905514;29;20346;-72
2022/09/13 04:07:09;;;;;;;;;;;17.30;99.90;;;;;;4924759;29;19937;-72
2022/09/13 04:09:35;;;;;;;;;;;17.40;99.90;;;;;;4922459;29;19995;-72
2022/09/13 04:12:00;;;;;;;;;;;17.50;99.90;;;;;;4922935;29;20002;-72
2022/09/13 04:14:27;;;;;;;;;;;17.50;99.90;;;;;;4923882;29;19919;-72
2022/09/13 04:16:53;;;;;;;;;;;17.60;99.90;;;;;;4920721;29;20328;-72
2022/09/13 04:19:19;;;;;;;;;;;17.70;99.90;;;;;;4916791;29;19926;-72
2022/09/13 04:21:48;;;;;;;;;;;17.70;99.90;;;;;;4904841;29;20382;-72
2022/09/13 04:24:14;;;;;;;;;;;17.80;99.90;;;;;;4919750;29;20038;-72
2022/09/13 04:26:40;;;;;;;;;;;17.80;99.90;;;;;;4923990;29;20001;-72
2022/09/13 04:29:05;;;;;;;;;;;17.90;99.90;;;;;;4921480;29;19933;-72
2022/09/13 04:31:31;;;;;;;;;;;18.00;99.90;;;;;;4916410;29;19981;-72
2022/09/13 04:33:57;;;;;;;;;;;18.10;99.90;;;;;;4918732;29;19989;-73
2022/09/13 04:36:23;;;;;;;;;;;18.20;99.90;;;;;;4922148;29;19937;-73
2022/09/13 04:38:49;;;;;;;;;;;18.30;99.90;;;;;;4903332;29;20197;-72
2022/09/13 04:41:16;;;;;;;;;;;18.30;99.90;;;;;;4923859;29;19918;-72
2022/09/13 04:43:41;;;;;;;;;;;18.40;99.90;;;;;;4922241;29;19993;-71
2022/09/13 04:46:07;;;;;;;;;;;18.50;99.90;;;;;;4923858;29;20583;-72
2022/09/13 04:48:33;;;;;;;;;;;18.40;99.90;;;;;;4922170;29;19928;-72
2022/09/13 04:51:03;;;;;;;;;;;18.30;99.90;;;;;;4922283;29;20579;-72
2022/09/13 04:53:29;;;;;;;;;;;18.40;99.90;;;;;;4902023;29;20291;-72
2022/09/13 04:55:59;;;;;;;;;;;18.40;99.90;;;;;;4923524;29;20473;-72
2022/09/13 04:58:24;;;;;;;;;;;18.40;99.90;;;;;;4922422;29;19925;-72
2022/09/13 05:00:55;;;;;;;;;;;18.40;99.90;;;;;;4922751;29;19923;-72
2022/09/13 05:03:21;;;;;;;;;;;18.40;99.90;;;;;;4902108;29;20139;-71
2022/09/13 05:05:46;;;;;;;;;;;18.40;99.90;;;;;;4901663;29;20174;-72
2022/09/13 05:08:12;;;;;;;;;;;18.50;99.90;;;;;;4919863;29;20226;-72
2022/09/13 05:10:37;;;;;;;;;;;18.50;99.90;;;;;;4904158;29;19915;-71
2022/09/13 05:13:03;;;;;;;;;;;18.40;99.90;;;;;;4920564;29;19930;-72
2022/09/13 05:15:28;;;;;;;;;;;18.40;99.90;;;;;;4921944;29;20232;-72
2022/09/13 05:17:54;;;;;;;;;;;18.30;99.90;;;;;;4901571;29;19914;-72
2022/09/13 05:20:20;;;;;;;;;;;18.20;99.90;;;;;;4919420;29;20029;-72
2022/09/13 05:22:45;;;;;;;;;;;18.20;99.90;;;;;;4902568;29;19925;-72
2022/09/13 05:25:11;;;;;;;;;;;18.20;99.90;;;;;;4922189;29;20264;-72
2022/09/13 05:27:36;;;;;;;;;;;18.20;99.90;;;;;;4904594;29;20036;-72
2022/09/13 05:30:02;;;;;;;;;;;18.20;99.90;;;;;;4905043;29;19919;-72
2022/09/13 05:32:29;;;;;;;;;;;18.30;99.90;;;;;;4921831;29;20302;-72
2022/09/13 05:34:55;;;;;;;;;;;18.30;99.90;;;;;;4922915;29;20054;-72
2022/09/13 05:37:20;;;;;;;;;;;18.30;99.90;;;;;;4921530;29;20010;-73
2022/09/13 05:39:46;;;;;;;;;;;18.40;99.90;;;;;;4920795;29;19919;-72
2022/09/13 05:42:11;;;;;;;;;;;18.30;99.90;;;;;;4905301;29;19915;-73
2022/09/13 05:44:37;;;;;;;;;;;18.30;99.90;;;;;;4902973;29;20374;-72
2022/09/13 05:47:02;;;;;;;;;;;18.30;99.90;;;;;;4923056;29;19915;-73
2022/09/13 05:49:28;;;;;;;;;;;18.40;99.90;;;;;;4915510;29;20002;-73
2022/09/13 05:51:53;;;;;;;;;;;18.40;99.90;;;;;;4918587;29;20367;-73
2022/09/13 05:54:19;;;;;;;;;;;18.30;99.90;;;;;;4920100;29;19918;-73
2022/09/13 05:56:44;;;;;;;;;;;18.30;99.90;;;;;;4921080;29;20386;-73
2022/09/13 05:59:11;;;;;;;;;;;18.40;99.90;;;;;;4931305;29;20291;-73
2022/09/13 06:01:36;;;;;;;;;;;18.40;99.90;;;;;;4920988;29;19923;-73
2022/09/13 06:04:02;;;;;;;;;;;18.40;99.90;;;;;;4921748;29;19921;-72
2022/09/13 06:06:28;;;;;;;;;;;18.40;99.90;;;;;;4920340;29;19915;-73
2022/09/13 06:08:54;;;;;;;;;;;18.40;99.90;;;;;;4920296;29;19958;-73
2022/09/13 06:11:19;;;;;;;;;;;18.40;99.90;;;;;;4902747;29;19915;-73
2022/09/13 06:13:45;;;;;;;;;;;18.40;99.90;;;;;;4920427;29;19950;-73
2022/09/13 06:16:11;;;;;;;;;;;18.40;99.90;;;;;;4921961;29;19915;-73
2022/09/13 06:18:37;;;;;;;;;;;18.40;99.90;;;;;;4921064;29;19919;-73
2022/09/13 06:21:10;;;;;;;;;;;18.40;99.90;;;;;;4916316;29;19965;-73
2022/09/13 06:23:36;;;;;;;;;;;18.40;99.90;;;;;;4918052;29;19930;-73
2022/09/13 06:26:03;;;;;;;;;;;18.40;99.90;;;;;;4918504;29;20066;-72
2022/09/13 06:28:29;;;;;;;;;;;18.50;99.90;;;;;;4919206;29;20413;-72
2022/09/13 06:31:05;;;;;;;;;;;18.50;99.90;;;;;;4916662;29;19914;-72
2022/09/13 06:33:31;;;;;;;;;;;18.50;99.90;;;;;;4921678;29;19927;-72
2022/09/13 06:35:59;;;;;;;;;;;18.60;99.90;;;;;;4917372;29;20022;-72
2022/09/13 06:38:24;;;;;;;;;;;18.60;99.90;;;;;;4917261;29;19925;-73
2022/09/13 06:40:58;;;;;;;;;;;18.70;99.90;;;;;;4918140;29;20013;-73
2022/09/13 06:43:23;;;;;;;;;;;18.80;99.90;;;;;;4916149;29;20069;-73
2022/09/13 06:45:49;;;;;;;;;;;18.90;99.90;;;;;;4917363;29;20375;-72
2022/09/13 06:48:15;;;;;;;;;;;19.00;99.90;;;;;;4577334;29;9999740;-73
2022/09/13 06:50:40;;;;;;;;;;;19.00;99.90;;;;;;4913584;29;20379;-73
2022/09/13 06:53:06;;;;;;;;;;;19.10;99.90;;;;;;4914797;29;19954;-73
2022/09/13 06:55:31;;;;;;;;;;;19.10;99.90;;;;;;4919159;29;19919;-73
2022/09/13 06:57:57;;;;;;;;;;;19.20;99.90;;;;;;4894960;29;19966;-72
2022/09/13 07:00:23;;;;;;;;;;;19.20;99.90;;;;;;4906988;29;19918;-73
2022/09/13 07:02:51;;;;;;;;;;;19.30;99.90;;;;;;4912978;29;20351;-73
2022/09/13 07:05:19;;;;;;;;;;;19.30;99.90;;;;;;4912896;29;20378;-73
2022/09/13 07:07:45;;;;;;;;;;;19.40;99.90;;;;;;4912185;29;20450;-72
2022/09/13 07:10:10;;;;;;;;;;;19.40;99.90;;;;;;4918047;29;20370;-72
2022/09/13 07:12:36;;;;;;;;;;;19.50;99.90;;;;;;4898872;29;20703;-72
2022/09/13 07:15:01;;;;;;;;;;;19.50;99.90;;;;;;4918309;29;20398;-73
2022/09/13 07:17:27;;;;;;;;;;;19.60;99.90;;;;;;4893632;29;20852;-73
2022/09/13 07:19:53;;;;;;;;;;;19.60;99.90;;;;;;4916808;29;19937;-72
2022/09/13 07:22:18;;;;;;;;;;;19.60;99.90;;;;;;4915621;29;20024;-73
2022/09/13 07:24:44;;;;;;;;;;;19.50;99.90;;;;;;4914817;29;19926;-73
2022/09/13 07:27:09;;;;;;;;;;;19.60;99.90;;;;;;4899873;29;19918;-74
2022/09/13 07:29:35;;;;;;;;;;;19.60;99.90;;;;;;4917957;29;20406;-73
2022/09/13 07:32:00;;;;;;;;;;;19.60;99.90;;;;;;4919395;29;20022;-73
2022/09/13 07:34:26;;;;;;;;;;;19.60;99.90;;;;;;4917665;29;20024;-73
2022/09/13 07:36:52;;;;;;;;;;;19.70;99.90;;;;;;4919128;29;19918;-73
2022/09/13 07:39:17;;;;;;;;;;;19.80;99.90;;;;;;4920714;29;19941;-73
2022/09/13 07:41:44;;;;;;;;;;;19.80;99.90;;;;;;4911341;29;20002;-72
2022/09/13 07:44:10;;;;;;;;;;;19.90;99.90;;;;;;4918242;29;19926;-72
2022/09/13 07:46:38;;;;;;;;;;;19.90;99.90;;;;;;4922290;29;19922;-72
2022/09/13 07:49:04;;;;;;;;;;;20.00;99.90;;;;;;4905822;29;20370;-73
2022/09/13 07:51:31;;;;;;;;;;;20.00;99.90;;;;;;4913522;29;19918;-73
2022/09/13 07:53:57;;;;;;;;;;;20.00;99.90;;;;;;4889291;29;20127;-73
2022/09/13 07:56:26;;;;;;;;;;;20.00;99.90;;;;;;4919365;29;19971;-73
2022/09/13 07:58:53;;;;;;;;;;;19.90;99.90;;;;;;4917064;29;19918;-73
2022/09/13 08:01:22;;;;;;;;;;;19.90;99.90;;;;;;4921662;29;20466;-73
2022/09/13 08:04:01;;;;;;;;;;;19.80;99.90;;;;;;4921148;29;19923;-73
2022/09/13 08:06:28;;;;;;;;;;;19.90;99.90;;;;;;4923567;29;20464;-73
2022/09/13 08:08:54;;;;;;;;;;;19.80;99.90;;;;;;4899204;29;20340;-73
2022/09/13 08:11:20;;;;;;;;;;;19.80;99.90;;;;;;4924430;29;19919;-72
2022/09/13 08:13:47;;;;;;;;;;;19.80;99.90;;;;;;4923189;29;20108;-72
2022/09/13 08:16:12;;;;;;;;;;;19.80;99.90;;;;;;4918797;29;19925;-71
2022/09/13 08:18:48;;;;;;;;;;;19.80;99.90;;;;;;4903895;29;19919;-72
2022/09/13 08:21:14;;;;;;;;;;;19.90;99.90;;;;;;4922317;29;19923;-72
2022/09/13 08:23:40;;;;;;;;;;;19.90;99.90;;;;;;4920516;29;20425;-71
2022/09/13 08:26:07;;;;;;;;;;;19.90;99.90;;;;;;4920371;29;19937;-73
2022/09/13 08:28:33;;;;;;;;;;;19.90;99.90;;;;;;4915701;29;20365;-73
2022/09/13 08:31:04;;;;;;;;;;;19.90;99.90;;;;;;4923327;29;19919;-72
2022/09/13 08:33:31;;;;;;;;;;;19.90;99.90;;;;;;4905054;29;19934;-73
2022/09/13 08:35:57;;;;;;;;;;;19.90;99.90;;;;;;4923366;29;19965;-72
2022/09/13 08:38:22;;;;;;;;;;;19.90;99.90;;;;;;4898902;29;20280;-73
2022/09/13 08:40:50;;;;;;;;;;;19.90;99.90;;;;;;4901962;29;20366;-73
2022/09/13 08:43:30;;;;;;;;;;;19.80;99.90;;;;;;4915037;29;19923;-73
2022/09/13 08:46:01;;;;;;;;;;;19.80;99.90;;;;;;4923045;29;19923;-73
2022/09/13 08:48:31;;;;;;;;;;;19.70;99.90;;;;;;4919714;29;19919;-73
2022/09/13 08:51:00;;;;;;;;;;;19.70;99.90;;;;;;4912378;29;19973;-73
2022/09/13 08:53:27;;;;;;;;;;;19.60;99.90;;;;;;4915100;29;19931;-72
2022/09/13 08:56:02;;;;;;;;;;;19.50;99.90;;;;;;4910546;29;19923;-72
2022/09/13 08:58:34;;;;;;;;;;;19.40;99.90;;;;;;4909111;29;19919;-72
2022/09/13 09:01:05;;;;;;;;;;;19.40;99.90;;;;;;4905827;29;21441;-73
2022/09/13 09:03:40;;;;;;;;;;;19.30;99.90;;;;;;4898124;29;20406;-73
2022/09/13 09:06:11;;;;;;;;;;;19.30;99.90;;;;;;4916433;29;20291;-72
2022/09/13 09:08:39;;;;;;;;;;;19.30;99.90;;;;;;4920680;29;20399;-73
2022/09/13 09:11:09;;;;;;;;;;;19.30;99.90;;;;;;4921559;29;19926;-72
2022/09/13 09:13:37;;;;;;;;;;;19.40;99.90;;;;;;4920199;29;19933;-72
2022/09/13 09:16:15;;;;;;;;;;;19.50;99.90;;;;;;4921416;29;19919;-72
2022/09/13 09:18:45;;;;;;;;;;;19.70;99.90;;;;;;4917795;29;19919;-73
2022/09/13 09:21:13;;;;;;;;;;;19.70;99.90;;;;;;4921780;29;19926;-73
2022/09/13 09:23:50;;;;;;;;;;;19.80;99.90;;;;;;4920597;29;19919;-73
2022/09/13 09:26:19;;;;;;;;;;;19.80;99.90;;;;;;4910500;29;19919;-73
2022/09/13 09:28:47;;;;;;;;;;;19.80;99.90;;;;;;4903226;29;19974;-73
2022/09/13 09:31:19;;;;;;;;;;;20.00;99.90;;;;;;4899444;29;19914;-73
2022/09/13 09:33:54;;;;;;;;;;;20.00;99.90;;;;;;4917332;29;19923;-73
2022/09/13 09:36:42;;;;;;;;;;;20.00;99.90;;;;;;4920757;29;19946;-73
2022/09/13 09:39:11;;;;;;;;;;;20.00;99.90;;;;;;4916519;29;20359;-74
2022/09/13 09:41:37;;;;;;;;;;;20.00;99.90;;;;;;4909179;29;19933;-72
2022/09/13 09:44:16;;;;;;;;;;;20.10;99.90;;;;;;4908162;29;19919;-73
2022/09/13 09:46:43;;;;;;;;;;;20.10;99.90;;;;;;4910877;29;19918;-73
2022/09/13 09:50:07;;;;;;;;;;;20.20;99.90;;;;;;4911486;29;20404;-73
2022/09/13 09:51:57;;;;;;;;;;;20.20;99.90;;;;;;4913909;29;20034;-72
2022/09/13 09:54:25;;;;;;;;;;;20.10;99.90;;;;;;4896131;29;19927;-72
2022/09/13 09:56:53;;;;;;;;;;;19.90;99.90;;;;;;4916260;29;19926;-72
2022/09/13 09:59:27;;;;;;;;;;;19.90;99.90;;;;;;4917999;29;19962;-73
2022/09/13 10:01:54;;;;;;;;;;;19.90;99.90;;;;;;4904997;29;20070;-72
2022/09/13 10:04:21;;;;;;;;;;;19.70;99.90;;;;;;4915516;29;19919;-73
2022/09/13 10:06:48;;;;;;;;;;;19.70;99.90;;;;;;4905619;29;19919;-72
2022/09/13 10:09:18;;;;;;;;;;;19.60;99.90;;;;;;4896311;29;19931;-72
2022/09/13 10:11:44;;;;;;;;;;;19.60;99.90;;;;;;4917807;29;19919;-72
2022/09/13 10:14:28;;;;;;;;;;;19.50;99.90;;;;;;4913114;29;19933;-73
2022/09/13 10:17:04;;;;;;;;;;;19.50;99.90;;;;;;4918405;29;20021;-73
2022/09/13 10:19:30;;;;;;;;;;;19.60;99.90;;;;;;4918694;29;19915;-73
2022/09/13 10:22:04;;;;;;;;;;;19.60;99.90;;;;;;4898900;29;19986;-73
2022/09/13 10:24:30;;;;;;;;;;;19.60;99.90;;;;;;4908968;29;19919;-73
2022/09/13 10:27:02;;;;;;;;;;;19.70;99.90;;;;;;5074619;27;1939024;-66
2022/09/13 10:29:29;;;;;;;;;;;19.70;99.90;;;;;;5140781;27;20404;-65
2022/09/13 10:31:57;;;;;;;;;;;19.60;99.90;;;;;;5134913;27;19988;-65
2022/09/13 10:34:28;;;;;;;;;;;19.60;99.90;;;;;;5130382;27;19915;-65
2022/09/13 10:37:04;;;;;;;;;;;19.60;99.90;;;;;;5127896;27;20008;-65
2022/09/13 10:39:31;;;;;;;;;;;19.70;99.90;;;;;;5132580;27;19958;-67
2022/09/13 10:42:08;;;;;;;;;;;19.80;99.90;;;;;;5129847;27;20161;-65
2022/09/13 10:44:40;;;;;;;;;;;19.80;99.90;;;;;;5130596;27;19968;-67
2022/09/13 10:47:10;;;;;;;;;;;19.80;99.90;;;;;;5105975;27;20447;-64
2022/09/13 10:49:44;;;;;;;;;;;19.90;99.90;;;;;;5133890;27;19922;-63
2022/09/13 10:52:29;;;;;;;;;;;20.00;99.90;;;;;;5136233;27;19918;-64
2022/09/13 10:54:55;;;;;;;;;;;20.10;99.90;;;;;;5137220;27;19926;-64
2022/09/13 10:57:34;;;;;;;;;;;20.00;99.90;;;;;;5132601;27;20474;-64
2022/09/13 11:00:00;;;;;;;;;;;19.90;99.90;;;;;;5120029;27;20004;-66
2022/09/13 11:02:42;;;;;;;;;;;19.70;99.90;;;;;;5133617;27;20346;-67
2022/09/13 11:05:26;;;;;;;;;;;19.70;99.90;;;;;;5129297;27;19967;-64
2022/09/13 11:08:02;;;;;;;;;;;19.60;99.90;;;;;;5134550;27;20074;-67
2022/09/13 11:10:40;;;;;;;;;;;19.50;99.90;;;;;;5137048;27;20285;-66
2022/09/13 11:13:13;;;;;;;;;;;19.40;99.90;;;;;;5137185;27;19916;-66
2022/09/13 11:16:11;;;;;;;;;;;19.40;99.90;;;;;;5136843;27;20005;-66
2022/09/13 11:18:54;;;;;;;;;;;19.40;99.90;;;;;;5079956;27;20435;-66
2022/09/13 11:21:28;;;;;;;;;;;19.40;99.90;;;;;;5133638;27;19919;-66
2022/09/13 11:24:11;;;;;;;;;;;19.40;99.90;;;;;;5136402;27;19915;-66
2022/09/13 11:26:44;;;;;;;;;;;19.50;99.90;;;;;;5136395;27;19923;-66
2022/09/13 11:29:09;;;;;;;;;;;19.50;99.90;;;;;;5136404;27;19957;-67
2022/09/13 11:31:42;;;;;;;;;;;19.60;99.90;;;;;;5136333;27;19912;-66
2022/09/13 11:34:20;;;;;;;;;;;19.60;99.90;;;;;;5133098;27;20341;-67
2022/09/13 11:36:52;;;;;;;;;;;19.70;99.90;;;;;;5129054;27;20282;-66
2022/09/13 11:39:20;;;;;;;;;;;19.80;99.90;;;;;;5120888;27;19985;-66
2022/09/13 11:41:55;;;;;;;;;;;19.80;99.90;;;;;;5123925;27;20029;-67
2022/09/13 11:44:36;;;;;;;;;;;19.80;99.90;;;;;;5122629;27;19922;-66
2022/09/13 11:47:04;;;;;;;;;;;19.80;99.90;;;;;;5116646;27;19923;-66
2022/09/13 11:49:48;;;;;;;;;;;19.90;99.90;;;;;;5123277;27;20015;-67
2022/09/13 11:52:13;;;;;;;;;;;20.00;99.90;;;;;;5124844;27;19915;-66
2022/09/13 11:54:55;;;;;;;;;;;20.00;99.90;;;;;;5122742;27;19921;-66
2022/09/13 11:57:25;;;;;;;;;;;20.20;99.90;;;;;;5120618;27;19915;-65
2022/09/13 11:59:51;;;;;;;;;;;20.20;99.90;;;;;;5119198;27;19919;-67
2022/09/13 12:02:35;;;;;;;;;;;20.20;99.90;;;;;;5108719;27;19920;-66
2022/09/13 12:05:04;;;;;;;;;;;20.20;99.90;;;;;;5103717;27;19927;-66
2022/09/13 12:07:30;;;;;;;;;;;20.40;99.90;;;;;;5115085;27;19916;-67
2022/09/13 12:10:14;;;;;;;;;;;20.60;99.90;;;;;;5109878;27;20173;-66
2022/09/13 12:12:40;;;;;;;;;;;20.80;99.90;;;;;;5108758;27;19923;-66
2022/09/13 12:15:12;;;;;;;;;;;21.00;99.90;;;;;;5104565;27;19951;-66
2022/09/13 12:17:40;;;;;;;;;;;21.00;99.90;;;;;;5108576;27;19923;-66
2022/09/13 12:20:26;;;;;;;;;;;20.90;99.90;;;;;;5113895;27;19994;-66
2022/09/13 12:22:53;;;;;;;;;;;21.00;99.90;;;;;;5093293;27;20057;-66
2022/09/13 12:25:23;;;;;;;;;;;20.90;99.90;;;;;;5111339;27;19935;-66
2022/09/13 12:27:49;;;;;;;;;;;20.90;99.90;;;;;;5108384;27;19938;-66
2022/09/13 12:30:16;;;;;;;;;;;20.90;99.90;;;;;;5109742;27;20294;-66
2022/09/13 12:32:46;;;;;;;;;;;20.90;99.90;;;;;;5107342;27;19916;-66
2022/09/13 12:35:15;;;;;;;;;;;20.90;99.90;;;;;;5108314;27;19939;-66
2022/09/13 12:37:57;;;;;;;;;;;21.00;99.90;;;;;;5106796;27;20382;-66
2022/09/13 12:40:42;;;;;;;;;;;20.90;99.90;;;;;;5107228;27;20211;-65
2022/09/13 12:43:26;;;;;;;;;;;20.80;99.90;;;;;;5109213;27;19983;-66
2022/09/13 12:46:07;;;;;;;;;;;20.60;99.90;;;;;;5106047;27;19976;-65
2022/09/13 12:48:49;;;;;;;;;;;20.40;99.90;;;;;;5113156;27;19919;-65
2022/09/13 12:51:33;;;;;;;;;;;20.20;99.90;;;;;;5114496;27;19923;-66
2022/09/13 12:54:17;;;;;;;;;;;20.00;99.90;;;;;;5113910;27;20302;-65
2022/09/13 12:56:55;;;;;;;;;;;20.00;99.90;;;;;;5112940;27;20398;-65
2022/09/13 12:59:29;;;;;;;;;;;20.00;99.90;;;;;;5116084;27;20390;-66
2022/09/13 13:01:54;;;;;;;;;;;20.00;99.90;;;;;;5116144;27;19915;-66
2022/09/13 13:04:29;;;;;;;;;;;20.10;99.90;;;;;;5114302;27;19922;-66
2022/09/13 13:06:57;;;;;;;;;;;20.10;99.90;;;;;;5114850;27;20316;-66
2022/09/13 13:09:43;;;;;;;;;;;20.10;99.90;;;;;;5115083;27;19915;-66
2022/09/13 13:12:25;;;;;;;;;;;20.10;99.90;;;;;;5102184;27;19915;-71
2022/09/13 13:14:54;;;;;;;;;;;20.00;99.90;;;;;;5113707;27;20037;-70
2022/09/13 13:17:37;;;;;;;;;;;20.00;99.90;;;;;;5107059;27;19954;-70
2022/09/13 13:20:22;;;;;;;;;;;19.90;99.90;;;;;;5118055;27;20397;-70
2022/09/13 13:22:48;;;;;;;;;;;19.80;99.90;;;;;;5121554;27;20294;-70
2022/09/13 13:25:29;;;;;;;;;;;19.90;99.90;;;;;;5113470;27;19950;-70
2022/09/13 13:27:54;;;;;;;;;;;19.90;99.90;;;;;;5121946;27;19915;-69
2022/09/13 13:30:32;;;;;;;;;;;20.00;99.90;;;;;;5108331;27;20408;-70
2022/09/13 13:33:17;;;;;;;;;;;20.10;99.90;;;;;;5120268;27;19915;-69
2022/09/13 13:35:43;;;;;;;;;;;20.10;99.90;;;;;;5128947;27;19915;-70
2022/09/13 13:38:27;;;;;;;;;;;20.10;99.90;;;;;;5116012;27;20224;-70
2022/09/13 13:41:04;;;;;;;;;;;20.10;99.90;;;;;;4761530;27;10000289;-70
2022/09/13 13:43:32;;;;;;;;;;;20.10;99.90;;;;;;5111144;27;20289;-68
2022/09/13 13:46:18;;;;;;;;;;;20.00;99.90;;;;;;5117709;27;19931;-68
2022/09/13 13:48:44;;;;;;;;;;;20.00;99.90;;;;;;5107983;27;19915;-69
2022/09/13 13:51:10;;;;;;;;;;;20.00;99.90;;;;;;5126794;27;20544;-70
2022/09/13 13:53:36;;;;;;;;;;;19.90;99.90;;;;;;5113194;27;20018;-70
2022/09/13 13:56:17;;;;;;;;;;;20.00;99.90;;;;;;5122433;27;19915;-70
2022/09/13 13:58:45;;;;;;;;;;;19.80;99.90;;;;;;5121438;27;19916;-70
2022/09/13 14:01:13;;;;;;;;;;;19.80;99.90;;;;;;5118786;27;20033;-70
2022/09/13 14:04:05;;;;;;;;;;;19.70;99.90;;;;;;5119735;27;19961;-70
2022/09/13 14:06:30;;;;;;;;;;;19.60;99.90;;;;;;5078123;28;20757;-70
2022/09/13 14:08:56;;;;;;;;;;;19.50;99.90;;;;;;5118327;27;19957;-70
2022/09/13 14:11:29;;;;;;;;;;;19.40;99.90;;;;;;5117944;27;20012;-70
2022/09/13 14:14:00;;;;;;;;;;;19.30;99.90;;;;;;5122317;27;20132;-70
2022/09/13 14:16:44;;;;;;;;;;;19.30;99.90;;;;;;5121503;27;19915;-70
2022/09/13 14:19:28;;;;;;;;;;;19.20;99.90;;;;;;5109065;27;19951;-71
2022/09/13 14:22:19;;;;;;;;;;;19.20;99.90;;;;;;5116407;27;20298;-71
2022/09/13 14:24:47;;;;;;;;;;;19.20;99.90;;;;;;5115194;27;20245;-70
2022/09/13 14:27:21;;;;;;;;;;;19.20;99.90;;;;;;5122069;28;19938;-70
2022/09/13 14:29:48;;;;;;;;;;;19.20;99.90;;;;;;5122558;28;19915;-70
2022/09/13 14:32:16;;;;;;;;;;;19.20;99.90;;;;;;5122549;28;19916;-70
2022/09/13 14:34:49;;;;;;;;;;;19.30;99.90;;;;;;5120829;28;19911;-70